sensor_id;sensor_type;location;lat;lon;timestamp;P1;durP1;ratioP1;P2;durP2;ratioP2
31596;SDS011;74162;50.912;6.918;2024-02-23T00:00:29;1.92;;;1.00;;
31596;SDS011;74162;50.912;6.918;2024-02-23T00:01:01;1.92;;;0.90;;
31596;SDS011;74162;50.912;6.918;2024-02-23T00:01:34;1.73;;;0.93;;
31596;SDS011;74162;50.912;6.918;2024-02-23T00:02:06;1.45;;;1.00;;
31596;SDS011;74162;50.912;6.918;2024-02-23T00:02:38;2.20;;;1.00;;
31596;SDS011;74162;50.912;6.918;2024-02-23T00:03:10;1.27;;;0.85;;
31596;SDS011;74162;50.912;6.918;2024-02-23T00:03:42;1.67;;;0.80;;
31596;SDS011;74162;50.912;6.918;2024-02-23T00:04:13;2.20;;;1.00;;
31596;SDS011;74162;50.912;6.918;2024-02-23T00:04:46;1.38;;;1.10;;
31596;SDS011;74162;50.912;6.918;2024-02-23T00:05:18;2.38;;;0.90;;
31596;SDS011;74162;50.912;6.918;2024-02-23T00:05:49;1.90;;;1.00;;
31596;SDS011;74162;50.912;6.918;2024-02-23T00:06:21;1.88;;;1.10;;
31596;SDS011;74162;50.912;6.918;2024-02-23T00:06:53;2.08;;;1.10;;
31596;SDS011;74162;50.912;6.918;2024-02-23T00:07:25;2.55;;;0.95;;
31596;SDS011;74162;50.912;6.918;2024-02-23T00:07:57;1.23;;;0.93;;
31596;SDS011;74162;50.912;6.918;2024-02-23T00:08:29;1.63;;;1.27;;
31596;SDS011;74162;50.912;6.918;2024-02-23T00:09:01;1.38;;;0.80;;
31596;SDS011;74162;50.912;6.918;2024-02-23T00:09:33;2.30;;;1.02;;
31596;SDS011;74162;50.912;6.918;2024-02-23T00:10:06;1.70;;;1.10;;
31596;SDS011;74162;50.912;6.918;2024-02-23T00:10:38;3.72;;;1.20;;
31596;SDS011;74162;50.912;6.918;2024-02-23T00:11:10;1.65;;;0.90;;
31596;SDS011;74162;50.912;6.918;2024-02-23T00:11:42;2.63;;;1.10;;
31596;SDS011;74162;50.912;6.918;2024-02-23T00:12:14;2.95;;;1.17;;
31596;SDS011;74162;50.912;6.918;2024-02-23T00:12:47;2.17;;;1.13;;
31596;SDS011;74162;50.912;6.918;2024-02-23T00:13:19;1.75;;;0.90;;
31596;SDS011;74162;50.912;6.918;2024-02-23T00:13:52;0.60;;;0.60;;
31596;SDS011;74162;50.912;6.918;2024-02-23T00:14:24;2.00;;;1.08;;
31596;SDS011;74162;50.912;6.918;2024-02-23T00:14:56;1.55;;;1.00;;
31596;SDS011;74162;50.912;6.918;2024-02-23T00:15:28;1.30;;;0.88;;
31596;SDS011;74162;50.912;6.918;2024-02-23T00:16:00;1.80;;;1.20;;
31596;SDS011;74162;50.912;6.918;2024-02-23T00:16:36;1.35;;;0.95;;
31596;SDS011;74162;50.912;6.918;2024-02-23T00:17:09;1.33;;;0.95;;
31596;SDS011;74162;50.912;6.918;2024-02-23T00:17:41;1.63;;;1.00;;
31596;SDS011;74162;50.912;6.918;2024-02-23T00:18:13;2.33;;;1.00;;
31596;SDS011;74162;50.912;6.918;2024-02-23T00:18:45;1.70;;;1.10;;
31596;SDS011;74162;50.912;6.918;2024-02-23T00:19:17;2.03;;;1.00;;
31596;SDS011;74162;50.912;6.918;2024-02-23T00:19:52;1.30;;;1.00;;
31596;SDS011;74162;50.912;6.918;2024-02-23T00:20:24;4.90;;;1.00;;
31596;SDS011;74162;50.912;6.918;2024-02-23T00:20:56;1.50;;;0.93;;
31596;SDS011;74162;50.912;6.918;2024-02-23T00:21:28;1.40;;;0.93;;
31596;SDS011;74162;50.912;6.918;2024-02-23T00:22:02;2.22;;;1.05;;
31596;SDS011;74162;50.912;6.918;2024-02-23T00:22:38;1.40;;;1.10;;
31596;SDS011;74162;50.912;6.918;2024-02-23T00:23:10;3.13;;;1.10;;
31596;SDS011;74162;50.912;6.918;2024-02-23T00:23:42;2.25;;;1.05;;
31596;SDS011;74162;50.912;6.918;2024-02-23T00:24:14;2.53;;;1.23;;
31596;SDS011;74162;50.912;6.918;2024-02-23T00:24:45;2.75;;;1.23;;
31596;SDS011;74162;50.912;6.918;2024-02-23T00:25:17;2.88;;;1.40;;
31596;SDS011;74162;50.912;6.918;2024-02-23T00:25:49;2.22;;;1.20;;
31596;SDS011;74162;50.912;6.918;2024-02-23T00:26:21;1.63;;;1.17;;
31596;SDS011;74162;50.912;6.918;2024-02-23T00:26:53;2.67;;;1.48;;
31596;SDS011;74162;50.912;6.918;2024-02-23T00:27:25;2.92;;;1.30;;
31596;SDS011;74162;50.912;6.918;2024-02-23T00:27:57;3.08;;;1.30;;
31596;SDS011;74162;50.912;6.918;2024-02-23T00:28:30;1.80;;;1.40;;
31596;SDS011;74162;50.912;6.918;2024-02-23T00:29:02;1.80;;;1.45;;
31596;SDS011;74162;50.912;6.918;2024-02-23T00:29:34;2.92;;;1.13;;
31596;SDS011;74162;50.912;6.918;2024-02-23T00:30:07;1.90;;;1.10;;
31596;SDS011;74162;50.912;6.918;2024-02-23T00:30:39;2.63;;;1.27;;
31596;SDS011;74162;50.912;6.918;2024-02-23T00:31:11;1.67;;;1.30;;
31596;SDS011;74162;50.912;6.918;2024-02-23T00:31:43;2.15;;;1.40;;
31596;SDS011;74162;50.912;6.918;2024-02-23T00:32:15;2.30;;;1.70;;
31596;SDS011;74162;50.912;6.918;2024-02-23T00:32:47;2.35;;;1.15;;
31596;SDS011;74162;50.912;6.918;2024-02-23T00:33:19;3.25;;;1.45;;
31596;SDS011;74162;50.912;6.918;2024-02-23T00:33:51;2.30;;;1.40;;
31596;SDS011;74162;50.912;6.918;2024-02-23T00:34:23;1.98;;;1.30;;
31596;SDS011;74162;50.912;6.918;2024-02-23T00:34:56;3.17;;;1.38;;
31596;SDS011;74162;50.912;6.918;2024-02-23T00:35:28;2.50;;;1.30;;
31596;SDS011;74162;50.912;6.918;2024-02-23T00:36:00;1.88;;;1.20;;
31596;SDS011;74162;50.912;6.918;2024-02-23T00:36:32;2.17;;;1.23;;
31596;SDS011;74162;50.912;6.918;2024-02-23T00:37:04;2.33;;;1.30;;
31596;SDS011;74162;50.912;6.918;2024-02-23T00:37:36;2.20;;;1.30;;
31596;SDS011;74162;50.912;6.918;2024-02-23T00:38:08;2.88;;;1.42;;
31596;SDS011;74162;50.912;6.918;2024-02-23T00:38:40;2.15;;;1.30;;
31596;SDS011;74162;50.912;6.918;2024-02-23T00:39:12;2.10;;;1.40;;
31596;SDS011;74162;50.912;6.918;2024-02-23T00:39:44;3.25;;;1.35;;
31596;SDS011;74162;50.912;6.918;2024-02-23T00:40:16;3.50;;;1.33;;
31596;SDS011;74162;50.912;6.918;2024-02-23T00:40:48;1.77;;;1.17;;
31596;SDS011;74162;50.912;6.918;2024-02-23T00:41:20;2.33;;;1.40;;
31596;SDS011;74162;50.912;6.918;2024-02-23T00:41:52;2.50;;;1.38;;
31596;SDS011;74162;50.912;6.918;2024-02-23T00:42:24;2.47;;;1.20;;
31596;SDS011;74162;50.912;6.918;2024-02-23T00:42:56;4.45;;;1.17;;
31596;SDS011;74162;50.912;6.918;2024-02-23T00:43:28;2.25;;;1.30;;
31596;SDS011;74162;50.912;6.918;2024-02-23T00:44:01;2.38;;;1.10;;
31596;SDS011;74162;50.912;6.918;2024-02-23T00:44:33;2.72;;;1.60;;
31596;SDS011;74162;50.912;6.918;2024-02-23T00:45:06;2.40;;;1.05;;
31596;SDS011;74162;50.912;6.918;2024-02-23T00:45:39;2.47;;;1.20;;
31596;SDS011;74162;50.912;6.918;2024-02-23T00:46:10;1.70;;;1.20;;
31596;SDS011;74162;50.912;6.918;2024-02-23T00:46:45;3.45;;;1.27;;
31596;SDS011;74162;50.912;6.918;2024-02-23T00:47:17;1.83;;;1.00;;
31596;SDS011;74162;50.912;6.918;2024-02-23T00:47:49;1.98;;;1.23;;
31596;SDS011;74162;50.912;6.918;2024-02-23T00:48:21;2.05;;;1.17;;
31596;SDS011;74162;50.912;6.918;2024-02-23T00:48:53;1.50;;;0.98;;
31596;SDS011;74162;50.912;6.918;2024-02-23T00:49:25;1.67;;;1.30;;
31596;SDS011;74162;50.912;6.918;2024-02-23T00:49:57;2.42;;;1.35;;
31596;SDS011;74162;50.912;6.918;2024-02-23T00:50:29;1.83;;;1.20;;
31596;SDS011;74162;50.912;6.918;2024-02-23T00:51:01;2.15;;;1.00;;
31596;SDS011;74162;50.912;6.918;2024-02-23T00:51:33;2.40;;;1.20;;
31596;SDS011;74162;50.912;6.918;2024-02-23T00:52:05;1.75;;;1.23;;
31596;SDS011;74162;50.912;6.918;2024-02-23T00:52:37;1.50;;;1.00;;
31596;SDS011;74162;50.912;6.918;2024-02-23T00:53:09;1.75;;;0.90;;
31596;SDS011;74162;50.912;6.918;2024-02-23T00:53:41;1.70;;;1.20;;
31596;SDS011;74162;50.912;6.918;2024-02-23T00:54:13;2.67;;;1.30;;
31596;SDS011;74162;50.912;6.918;2024-02-23T00:54:45;1.75;;;1.02;;
31596;SDS011;74162;50.912;6.918;2024-02-23T00:55:17;2.22;;;1.33;;
31596;SDS011;74162;50.912;6.918;2024-02-23T00:55:49;2.40;;;1.38;;
31596;SDS011;74162;50.912;6.918;2024-02-23T00:56:21;2.28;;;1.50;;
31596;SDS011;74162;50.912;6.918;2024-02-23T00:57:03;1.67;;;1.17;;
31596;SDS011;74162;50.912;6.918;2024-02-23T00:57:36;2.55;;;1.10;;
31596;SDS011;74162;50.912;6.918;2024-02-23T00:58:09;1.50;;;1.13;;
31596;SDS011;74162;50.912;6.918;2024-02-23T00:58:41;2.47;;;1.30;;
31596;SDS011;74162;50.912;6.918;2024-02-23T00:59:14;3.92;;;1.20;;
31596;SDS011;74162;50.912;6.918;2024-02-23T00:59:46;1.67;;;1.10;;
31596;SDS011;74162;50.912;6.918;2024-02-23T01:00:18;2.35;;;1.35;;
31596;SDS011;74162;50.912;6.918;2024-02-23T01:00:50;1.45;;;1.20;;
31596;SDS011;74162;50.912;6.918;2024-02-23T01:01:22;2.25;;;1.13;;
31596;SDS011;74162;50.912;6.918;2024-02-23T01:01:54;2.35;;;1.08;;
31596;SDS011;74162;50.912;6.918;2024-02-23T01:02:26;1.30;;;1.00;;
31596;SDS011;74162;50.912;6.918;2024-02-23T01:02:58;1.40;;;1.00;;
31596;SDS011;74162;50.912;6.918;2024-02-23T01:03:30;1.52;;;1.30;;
31596;SDS011;74162;50.912;6.918;2024-02-23T01:04:02;2.60;;;1.20;;
31596;SDS011;74162;50.912;6.918;2024-02-23T01:04:34;2.05;;;1.10;;
31596;SDS011;74162;50.912;6.918;2024-02-23T01:05:07;2.38;;;1.23;;
31596;SDS011;74162;50.912;6.918;2024-02-23T01:05:39;2.95;;;1.20;;
31596;SDS011;74162;50.912;6.918;2024-02-23T01:06:11;2.30;;;1.20;;
31596;SDS011;74162;50.912;6.918;2024-02-23T01:06:43;2.22;;;1.20;;
31596;SDS011;74162;50.912;6.918;2024-02-23T01:07:15;2.13;;;1.00;;
31596;SDS011;74162;50.912;6.918;2024-02-23T01:07:47;2.67;;;1.20;;
31596;SDS011;74162;50.912;6.918;2024-02-23T01:08:19;1.58;;;0.93;;
31596;SDS011;74162;50.912;6.918;2024-02-23T01:08:51;1.60;;;1.33;;
31596;SDS011;74162;50.912;6.918;2024-02-23T01:09:23;1.83;;;1.10;;
31596;SDS011;74162;50.912;6.918;2024-02-23T01:09:55;2.88;;;1.30;;
31596;SDS011;74162;50.912;6.918;2024-02-23T01:10:26;1.63;;;1.00;;
31596;SDS011;74162;50.912;6.918;2024-02-23T01:10:58;1.88;;;1.20;;
31596;SDS011;74162;50.912;6.918;2024-02-23T01:11:30;2.38;;;1.30;;
31596;SDS011;74162;50.912;6.918;2024-02-23T01:12:03;2.67;;;1.23;;
31596;SDS011;74162;50.912;6.918;2024-02-23T01:12:35;2.40;;;1.00;;
31596;SDS011;74162;50.912;6.918;2024-02-23T01:13:07;2.95;;;1.70;;
31596;SDS011;74162;50.912;6.918;2024-02-23T01:13:39;2.17;;;1.30;;
31596;SDS011;74162;50.912;6.918;2024-02-23T01:14:11;2.88;;;1.20;;
31596;SDS011;74162;50.912;6.918;2024-02-23T01:14:45;2.38;;;1.35;;
31596;SDS011;74162;50.912;6.918;2024-02-23T01:15:17;3.13;;;1.48;;
31596;SDS011;74162;50.912;6.918;2024-02-23T01:15:49;2.17;;;1.30;;
31596;SDS011;74162;50.912;6.918;2024-02-23T01:16:21;3.97;;;1.40;;
31596;SDS011;74162;50.912;6.918;2024-02-23T01:16:53;3.20;;;1.20;;
31596;SDS011;74162;50.912;6.918;2024-02-23T01:17:25;3.50;;;1.55;;
31596;SDS011;74162;50.912;6.918;2024-02-23T01:17:57;2.72;;;1.42;;
31596;SDS011;74162;50.912;6.918;2024-02-23T01:18:29;6.10;;;1.60;;
31596;SDS011;74162;50.912;6.918;2024-02-23T01:19:01;2.45;;;1.20;;
31596;SDS011;74162;50.912;6.918;2024-02-23T01:19:32;4.30;;;1.40;;
31596;SDS011;74162;50.912;6.918;2024-02-23T01:20:05;2.90;;;1.10;;
31596;SDS011;74162;50.912;6.918;2024-02-23T01:20:38;3.22;;;1.30;;
31596;SDS011;74162;50.912;6.918;2024-02-23T01:21:10;1.83;;;1.10;;
31596;SDS011;74162;50.912;6.918;2024-02-23T01:21:42;1.90;;;1.13;;
31596;SDS011;74162;50.912;6.918;2024-02-23T01:22:14;3.30;;;1.38;;
31596;SDS011;74162;50.912;6.918;2024-02-23T01:22:46;2.95;;;1.70;;
31596;SDS011;74162;50.912;6.918;2024-02-23T01:23:18;2.50;;;1.38;;
31596;SDS011;74162;50.912;6.918;2024-02-23T01:23:50;3.35;;;1.33;;
31596;SDS011;74162;50.912;6.918;2024-02-23T01:24:22;3.47;;;1.33;;
31596;SDS011;74162;50.912;6.918;2024-02-23T01:24:54;2.22;;;1.40;;
31596;SDS011;74162;50.912;6.918;2024-02-23T01:25:26;3.28;;;1.23;;
31596;SDS011;74162;50.912;6.918;2024-02-23T01:25:58;2.20;;;1.30;;
31596;SDS011;74162;50.912;6.918;2024-02-23T01:26:29;2.90;;;1.40;;
31596;SDS011;74162;50.912;6.918;2024-02-23T01:27:02;5.38;;;1.42;;
31596;SDS011;74162;50.912;6.918;2024-02-23T01:27:34;4.28;;;1.83;;
31596;SDS011;74162;50.912;6.918;2024-02-23T01:28:06;2.83;;;1.63;;
31596;SDS011;74162;50.912;6.918;2024-02-23T01:28:38;2.67;;;1.20;;
31596;SDS011;74162;50.912;6.918;2024-02-23T01:29:10;5.13;;;1.63;;
31596;SDS011;74162;50.912;6.918;2024-02-23T01:29:42;2.25;;;1.50;;
31596;SDS011;74162;50.912;6.918;2024-02-23T01:30:15;3.80;;;1.70;;
31596;SDS011;74162;50.912;6.918;2024-02-23T01:30:47;3.17;;;1.58;;
31596;SDS011;74162;50.912;6.918;2024-02-23T01:31:19;3.53;;;1.52;;
31596;SDS011;74162;50.912;6.918;2024-02-23T01:31:51;6.60;;;1.80;;
31596;SDS011;74162;50.912;6.918;2024-02-23T01:32:23;3.58;;;1.50;;
31596;SDS011;74162;50.912;6.918;2024-02-23T01:32:55;2.88;;;1.50;;
31596;SDS011;74162;50.912;6.918;2024-02-23T01:33:27;3.47;;;1.33;;
31596;SDS011;74162;50.912;6.918;2024-02-23T01:33:59;4.35;;;1.50;;
31596;SDS011;74162;50.912;6.918;2024-02-23T01:34:31;3.65;;;1.45;;
31596;SDS011;74162;50.912;6.918;2024-02-23T01:35:03;2.90;;;1.30;;
31596;SDS011;74162;50.912;6.918;2024-02-23T01:35:36;2.63;;;1.40;;
31596;SDS011;74162;50.912;6.918;2024-02-23T01:36:08;3.85;;;1.65;;
31596;SDS011;74162;50.912;6.918;2024-02-23T01:36:41;5.47;;;1.50;;
31596;SDS011;74162;50.912;6.918;2024-02-23T01:37:13;5.10;;;1.83;;
31596;SDS011;74162;50.912;6.918;2024-02-23T01:37:45;3.38;;;1.48;;
31596;SDS011;74162;50.912;6.918;2024-02-23T01:38:17;5.70;;;1.42;;
31596;SDS011;74162;50.912;6.918;2024-02-23T01:38:49;4.18;;;1.40;;
31596;SDS011;74162;50.912;6.918;2024-02-23T01:39:21;4.63;;;1.40;;
31596;SDS011;74162;50.912;6.918;2024-02-23T01:39:53;2.70;;;1.33;;
31596;SDS011;74162;50.912;6.918;2024-02-23T01:40:25;3.17;;;1.10;;
31596;SDS011;74162;50.912;6.918;2024-02-23T01:40:57;3.67;;;1.20;;
31596;SDS011;74162;50.912;6.918;2024-02-23T01:41:29;3.10;;;1.20;;
31596;SDS011;74162;50.912;6.918;2024-02-23T01:42:01;4.53;;;1.50;;
31596;SDS011;74162;50.912;6.918;2024-02-23T01:42:32;3.03;;;1.38;;
31596;SDS011;74162;50.912;6.918;2024-02-23T01:43:04;4.30;;;1.42;;
31596;SDS011;74162;50.912;6.918;2024-02-23T01:43:37;3.17;;;1.40;;
31596;SDS011;74162;50.912;6.918;2024-02-23T01:44:09;3.40;;;1.23;;
31596;SDS011;74162;50.912;6.918;2024-02-23T01:44:41;5.80;;;1.70;;
31596;SDS011;74162;50.912;6.918;2024-02-23T01:45:14;4.05;;;1.67;;
31596;SDS011;74162;50.912;6.918;2024-02-23T01:45:46;3.25;;;1.98;;
31596;SDS011;74162;50.912;6.918;2024-02-23T01:46:19;4.22;;;1.50;;
31596;SDS011;74162;50.912;6.918;2024-02-23T01:46:51;4.22;;;1.70;;
31596;SDS011;74162;50.912;6.918;2024-02-23T01:47:23;4.68;;;1.70;;
31596;SDS011;74162;50.912;6.918;2024-02-23T01:47:56;5.15;;;1.60;;
31596;SDS011;74162;50.912;6.918;2024-02-23T01:48:28;4.75;;;1.60;;
31596;SDS011;74162;50.912;6.918;2024-02-23T01:49:01;4.00;;;1.60;;
31596;SDS011;74162;50.912;6.918;2024-02-23T01:49:33;3.13;;;1.65;;
31596;SDS011;74162;50.912;6.918;2024-02-23T01:50:06;4.05;;;1.80;;
31596;SDS011;74162;50.912;6.918;2024-02-23T01:50:40;7.75;;;1.98;;
31596;SDS011;74162;50.912;6.918;2024-02-23T01:51:13;5.03;;;1.75;;
31596;SDS011;74162;50.912;6.918;2024-02-23T01:51:45;6.68;;;1.95;;
31596;SDS011;74162;50.912;6.918;2024-02-23T01:52:18;6.75;;;1.80;;
31596;SDS011;74162;50.912;6.918;2024-02-23T01:52:51;6.68;;;1.55;;
31596;SDS011;74162;50.912;6.918;2024-02-23T01:53:23;5.45;;;2.05;;
31596;SDS011;74162;50.912;6.918;2024-02-23T01:53:57;4.70;;;2.30;;
31596;SDS011;74162;50.912;6.918;2024-02-23T01:54:29;4.95;;;1.95;;
31596;SDS011;74162;50.912;6.918;2024-02-23T01:55:02;3.10;;;1.40;;
31596;SDS011;74162;50.912;6.918;2024-02-23T01:55:35;5.57;;;1.70;;
31596;SDS011;74162;50.912;6.918;2024-02-23T01:56:08;5.78;;;1.70;;
31596;SDS011;74162;50.912;6.918;2024-02-23T01:56:40;7.24;;;1.80;;
31596;SDS011;74162;50.912;6.918;2024-02-23T01:57:14;5.95;;;1.83;;
31596;SDS011;74162;50.912;6.918;2024-02-23T01:58:06;4.20;;;2.00;;
31596;SDS011;74162;50.912;6.918;2024-02-23T01:58:39;4.65;;;1.70;;
31596;SDS011;74162;50.912;6.918;2024-02-23T01:59:11;4.47;;;1.75;;
31596;SDS011;74162;50.912;6.918;2024-02-23T01:59:44;3.85;;;1.70;;
31596;SDS011;74162;50.912;6.918;2024-02-23T02:00:18;5.32;;;2.00;;
31596;SDS011;74162;50.912;6.918;2024-02-23T02:00:50;4.40;;;1.77;;
31596;SDS011;74162;50.912;6.918;2024-02-23T02:01:22;5.32;;;1.85;;
31596;SDS011;74162;50.912;6.918;2024-02-23T02:01:55;4.97;;;1.90;;
31596;SDS011;74162;50.912;6.918;2024-02-23T02:02:27;5.47;;;1.65;;
31596;SDS011;74162;50.912;6.918;2024-02-23T02:02:59;4.90;;;1.75;;
31596;SDS011;74162;50.912;6.918;2024-02-23T02:03:31;7.43;;;2.15;;
31596;SDS011;74162;50.912;6.918;2024-02-23T02:04:04;5.93;;;1.80;;
31596;SDS011;74162;50.912;6.918;2024-02-23T02:04:36;6.90;;;1.70;;
31596;SDS011;74162;50.912;6.918;2024-02-23T02:05:08;6.30;;;2.20;;
31596;SDS011;74162;50.912;6.918;2024-02-23T02:05:40;8.90;;;2.10;;
31596;SDS011;74162;50.912;6.918;2024-02-23T02:06:12;7.32;;;2.08;;
31596;SDS011;74162;50.912;6.918;2024-02-23T02:06:45;8.18;;;2.10;;
31596;SDS011;74162;50.912;6.918;2024-02-23T02:07:18;6.65;;;2.20;;
31596;SDS011;74162;50.912;6.918;2024-02-23T02:07:50;6.82;;;2.05;;
31596;SDS011;74162;50.912;6.918;2024-02-23T02:08:24;7.25;;;2.10;;
31596;SDS011;74162;50.912;6.918;2024-02-23T02:08:57;5.25;;;1.98;;
31596;SDS011;74162;50.912;6.918;2024-02-23T02:09:29;7.55;;;2.53;;
31596;SDS011;74162;50.912;6.918;2024-02-23T02:10:01;5.85;;;2.75;;
31596;SDS011;74162;50.912;6.918;2024-02-23T02:10:34;6.85;;;2.03;;
31596;SDS011;74162;50.912;6.918;2024-02-23T02:11:06;5.80;;;2.13;;
31596;SDS011;74162;50.912;6.918;2024-02-23T02:11:44;4.90;;;2.40;;
31596;SDS011;74162;50.912;6.918;2024-02-23T02:12:25;5.53;;;2.55;;
31596;SDS011;74162;50.912;6.918;2024-02-23T02:13:01;6.55;;;2.15;;
31596;SDS011;74162;50.912;6.918;2024-02-23T02:13:37;7.05;;;2.38;;
31596;SDS011;74162;50.912;6.918;2024-02-23T02:14:09;3.65;;;2.05;;
31596;SDS011;74162;50.912;6.918;2024-02-23T02:14:41;6.15;;;1.83;;
31596;SDS011;74162;50.912;6.918;2024-02-23T02:15:13;5.38;;;2.00;;
31596;SDS011;74162;50.912;6.918;2024-02-23T02:15:46;6.72;;;2.35;;
31596;SDS011;74162;50.912;6.918;2024-02-23T02:16:18;6.53;;;2.13;;
31596;SDS011;74162;50.912;6.918;2024-02-23T02:16:50;5.75;;;1.92;;
31596;SDS011;74162;50.912;6.918;2024-02-23T02:17:22;6.35;;;2.05;;
31596;SDS011;74162;50.912;6.918;2024-02-23T02:17:54;6.03;;;2.08;;
31596;SDS011;74162;50.912;6.918;2024-02-23T02:18:26;4.65;;;2.05;;
31596;SDS011;74162;50.912;6.918;2024-02-23T02:18:58;5.07;;;1.92;;
31596;SDS011;74162;50.912;6.918;2024-02-23T02:19:30;5.35;;;1.80;;
31596;SDS011;74162;50.912;6.918;2024-02-23T02:20:02;6.30;;;2.30;;
31596;SDS011;74162;50.912;6.918;2024-02-23T02:20:36;4.88;;;1.98;;
31596;SDS011;74162;50.912;6.918;2024-02-23T02:21:09;7.90;;;2.17;;
31596;SDS011;74162;50.912;6.918;2024-02-23T02:21:41;5.03;;;1.73;;
31596;SDS011;74162;50.912;6.918;2024-02-23T02:22:12;7.90;;;1.92;;
31596;SDS011;74162;50.912;6.918;2024-02-23T02:22:44;6.38;;;2.63;;
31596;SDS011;74162;50.912;6.918;2024-02-23T02:23:16;6.13;;;1.90;;
31596;SDS011;74162;50.912;6.918;2024-02-23T02:23:48;5.43;;;1.83;;
31596;SDS011;74162;50.912;6.918;2024-02-23T02:24:20;7.15;;;2.00;;
31596;SDS011;74162;50.912;6.918;2024-02-23T02:24:52;7.30;;;2.85;;
31596;SDS011;74162;50.912;6.918;2024-02-23T02:25:24;5.50;;;2.10;;
31596;SDS011;74162;50.912;6.918;2024-02-23T02:25:56;6.00;;;2.47;;
31596;SDS011;74162;50.912;6.918;2024-02-23T02:26:30;7.18;;;2.30;;
31596;SDS011;74162;50.912;6.918;2024-02-23T02:27:02;7.25;;;2.15;;
31596;SDS011;74162;50.912;6.918;2024-02-23T02:27:34;5.85;;;2.00;;
31596;SDS011;74162;50.912;6.918;2024-02-23T02:28:06;8.68;;;2.00;;
31596;SDS011;74162;50.912;6.918;2024-02-23T02:28:38;6.25;;;1.80;;
31596;SDS011;74162;50.912;6.918;2024-02-23T02:29:10;5.00;;;1.98;;
31596;SDS011;74162;50.912;6.918;2024-02-23T02:29:41;4.55;;;1.80;;
31596;SDS011;74162;50.912;6.918;2024-02-23T02:30:13;7.20;;;2.38;;
31596;SDS011;74162;50.912;6.918;2024-02-23T02:30:47;4.35;;;1.90;;
31596;SDS011;74162;50.912;6.918;2024-02-23T02:31:20;6.07;;;2.20;;
31596;SDS011;74162;50.912;6.918;2024-02-23T02:31:51;5.97;;;2.08;;
31596;SDS011;74162;50.912;6.918;2024-02-23T02:32:23;9.25;;;2.33;;
31596;SDS011;74162;50.912;6.918;2024-02-23T02:32:56;5.90;;;2.15;;
31596;SDS011;74162;50.912;6.918;2024-02-23T02:33:27;7.00;;;2.05;;
31596;SDS011;74162;50.912;6.918;2024-02-23T02:33:59;6.30;;;2.30;;
31596;SDS011;74162;50.912;6.918;2024-02-23T02:34:31;5.55;;;2.10;;
31596;SDS011;74162;50.912;6.918;2024-02-23T02:35:04;6.95;;;1.90;;
31596;SDS011;74162;50.912;6.918;2024-02-23T02:35:36;8.13;;;2.45;;
31596;SDS011;74162;50.912;6.918;2024-02-23T02:36:08;4.22;;;2.00;;
31596;SDS011;74162;50.912;6.918;2024-02-23T02:36:40;5.45;;;2.00;;
31596;SDS011;74162;50.912;6.918;2024-02-23T02:37:12;8.05;;;2.15;;
31596;SDS011;74162;50.912;6.918;2024-02-23T02:37:44;5.95;;;2.17;;
31596;SDS011;74162;50.912;6.918;2024-02-23T02:38:16;5.07;;;2.70;;
31596;SDS011;74162;50.912;6.918;2024-02-23T02:38:49;5.78;;;2.10;;
31596;SDS011;74162;50.912;6.918;2024-02-23T02:39:21;6.50;;;2.17;;
31596;SDS011;74162;50.912;6.918;2024-02-23T02:39:53;7.05;;;2.25;;
31596;SDS011;74162;50.912;6.918;2024-02-23T02:40:25;7.35;;;2.60;;
31596;SDS011;74162;50.912;6.918;2024-02-23T02:40:56;4.85;;;1.95;;
31596;SDS011;74162;50.912;6.918;2024-02-23T02:41:28;6.35;;;2.22;;
31596;SDS011;74162;50.912;6.918;2024-02-23T02:42:00;7.00;;;2.30;;
31596;SDS011;74162;50.912;6.918;2024-02-23T02:42:32;7.00;;;2.40;;
31596;SDS011;74162;50.912;6.918;2024-02-23T02:43:05;7.82;;;2.40;;
31596;SDS011;74162;50.912;6.918;2024-02-23T02:43:37;5.50;;;2.30;;
31596;SDS011;74162;50.912;6.918;2024-02-23T02:44:09;7.18;;;2.47;;
31596;SDS011;74162;50.912;6.918;2024-02-23T02:44:41;7.82;;;3.00;;
31596;SDS011;74162;50.912;6.918;2024-02-23T02:45:13;8.63;;;3.10;;
31596;SDS011;74162;50.912;6.918;2024-02-23T02:45:49;5.07;;;2.50;;
31596;SDS011;74162;50.912;6.918;2024-02-23T02:46:21;7.72;;;2.58;;
31596;SDS011;74162;50.912;6.918;2024-02-23T02:46:52;8.35;;;2.85;;
31596;SDS011;74162;50.912;6.918;2024-02-23T02:47:24;5.78;;;2.70;;
31596;SDS011;74162;50.912;6.918;2024-02-23T02:47:56;7.55;;;2.25;;
31596;SDS011;74162;50.912;6.918;2024-02-23T02:48:29;6.07;;;2.35;;
31596;SDS011;74162;50.912;6.918;2024-02-23T02:49:01;5.20;;;2.63;;
31596;SDS011;74162;50.912;6.918;2024-02-23T02:49:33;5.40;;;2.50;;
31596;SDS011;74162;50.912;6.918;2024-02-23T02:50:05;7.65;;;2.45;;
31596;SDS011;74162;50.912;6.918;2024-02-23T02:50:50;7.65;;;2.42;;
31596;SDS011;74162;50.912;6.918;2024-02-23T02:51:24;5.60;;;2.40;;
31596;SDS011;74162;50.912;6.918;2024-02-23T02:51:56;5.70;;;2.20;;
31596;SDS011;74162;50.912;6.918;2024-02-23T02:52:28;6.18;;;2.20;;
31596;SDS011;74162;50.912;6.918;2024-02-23T02:53:00;5.75;;;2.20;;
31596;SDS011;74162;50.912;6.918;2024-02-23T02:53:32;8.73;;;2.60;;
31596;SDS011;74162;50.912;6.918;2024-02-23T02:54:04;7.22;;;2.35;;
31596;SDS011;74162;50.912;6.918;2024-02-23T02:54:36;7.38;;;2.40;;
31596;SDS011;74162;50.912;6.918;2024-02-23T02:55:08;7.95;;;2.25;;
31596;SDS011;74162;50.912;6.918;2024-02-23T02:55:41;6.25;;;2.20;;
31596;SDS011;74162;50.912;6.918;2024-02-23T02:56:14;5.68;;;2.28;;
31596;SDS011;74162;50.912;6.918;2024-02-23T02:56:46;5.43;;;2.40;;
31596;SDS011;74162;50.912;6.918;2024-02-23T02:57:19;7.38;;;2.47;;
31596;SDS011;74162;50.912;6.918;2024-02-23T02:57:51;5.93;;;2.40;;
31596;SDS011;74162;50.912;6.918;2024-02-23T02:58:22;8.23;;;2.78;;
31596;SDS011;74162;50.912;6.918;2024-02-23T02:58:55;6.22;;;2.60;;
31596;SDS011;74162;50.912;6.918;2024-02-23T02:59:27;6.80;;;2.33;;
31596;SDS011;74162;50.912;6.918;2024-02-23T02:59:59;5.13;;;2.20;;
31596;SDS011;74162;50.912;6.918;2024-02-23T03:00:31;9.65;;;2.67;;
31596;SDS011;74162;50.912;6.918;2024-02-23T03:01:04;5.53;;;2.40;;
31596;SDS011;74162;50.912;6.918;2024-02-23T03:01:36;4.60;;;2.00;;
31596;SDS011;74162;50.912;6.918;2024-02-23T03:02:08;8.27;;;2.45;;
31596;SDS011;74162;50.912;6.918;2024-02-23T03:02:40;6.85;;;2.72;;
31596;SDS011;74162;50.912;6.918;2024-02-23T03:03:12;7.20;;;2.42;;
31596;SDS011;74162;50.912;6.918;2024-02-23T03:03:44;6.70;;;2.58;;
31596;SDS011;74162;50.912;6.918;2024-02-23T03:04:16;6.60;;;2.28;;
31596;SDS011;74162;50.912;6.918;2024-02-23T03:04:48;6.60;;;2.55;;
31596;SDS011;74162;50.912;6.918;2024-02-23T03:05:20;5.22;;;2.33;;
31596;SDS011;74162;50.912;6.918;2024-02-23T03:05:52;6.00;;;2.25;;
31596;SDS011;74162;50.912;6.918;2024-02-23T03:06:25;7.18;;;2.42;;
31596;SDS011;74162;50.912;6.918;2024-02-23T03:06:56;4.53;;;2.00;;
31596;SDS011;74162;50.912;6.918;2024-02-23T03:07:28;7.00;;;2.20;;
31596;SDS011;74162;50.912;6.918;2024-02-23T03:08:00;6.00;;;2.20;;
31596;SDS011;74162;50.912;6.918;2024-02-23T03:08:32;5.80;;;2.13;;
31596;SDS011;74162;50.912;6.918;2024-02-23T03:09:04;5.57;;;2.03;;
31596;SDS011;74162;50.912;6.918;2024-02-23T03:09:36;8.63;;;2.30;;
31596;SDS011;74162;50.912;6.918;2024-02-23T03:10:08;6.07;;;2.40;;
31596;SDS011;74162;50.912;6.918;2024-02-23T03:10:40;7.82;;;2.60;;
31596;SDS011;74162;50.912;6.918;2024-02-23T03:11:12;6.55;;;2.00;;
31596;SDS011;74162;50.912;6.918;2024-02-23T03:11:44;6.85;;;2.20;;
31596;SDS011;74162;50.912;6.918;2024-02-23T03:12:16;5.57;;;1.98;;
31596;SDS011;74162;50.912;6.918;2024-02-23T03:12:49;5.32;;;1.90;;
31596;SDS011;74162;50.912;6.918;2024-02-23T03:13:21;8.82;;;2.42;;
31596;SDS011;74162;50.912;6.918;2024-02-23T03:13:53;7.07;;;2.20;;
31596;SDS011;74162;50.912;6.918;2024-02-23T03:14:25;6.35;;;2.33;;
31596;SDS011;74162;50.912;6.918;2024-02-23T03:14:57;6.32;;;2.10;;
31596;SDS011;74162;50.912;6.918;2024-02-23T03:15:29;5.22;;;1.98;;